Time;durP1;ratioP1;P1;durP2;ratioP2;P2;SDS_P1;SDS_P2;PMS_P1;PMS_P2;Temp;Humidity;BMP_temperature;BMP_pressure;BME280_temperature;BME280_humidity;BME280_pressure;Samples;Min_cycle;Max_cycle;Signal;HPM_P1;HPM_P2
2024/01/26 00:02:18;;;;;;;15.20;12.68;;;;;;;11.64;100.00;102266.88;5253174;28;20036;-79
2024/01/26 00:04:50;;;;;;;13.50;12.10;;;;;;;11.68;100.00;102269.19;5254034;28;20029;-79
2024/01/26 00:07:22;;;;;;;14.07;12.38;;;;;;;11.67;100.00;102259.63;5252752;28;20032;-79
2024/01/26 00:09:55;;;;;;;13.77;11.20;;;;;;;11.68;100.00;102244.72;5250324;28;20039;-79
2024/01/26 00:12:28;;;;;;;12.85;11.73;;;;;;;11.73;100.00;102255.75;5256784;28;20044;-79
2024/01/26 00:15:00;;;;;;;12.60;11.40;;;;;;;11.66;100.00;102241.34;5255556;28;20041;-78
2024/01/26 00:17:32;;;;;;;12.57;11.35;;;;;;;11.69;100.00;102247.22;5253639;28;20695;-79
2024/01/26 00:20:05;;;;;;;11.48;10.27;;;;;;;11.69;100.00;102257.72;5253499;28;20025;-78
2024/01/26 00:22:37;;;;;;;12.18;10.90;;;;;;;11.67;100.00;102248.28;5257567;28;20390;-79
2024/01/26 00:25:09;;;;;;;11.48;10.38;;;;;;;11.65;100.00;102251.00;5253457;28;20037;-79
2024/01/26 00:27:41;;;;;;;11.73;10.52;;;;;;;11.68;100.00;102257.84;5256179;28;20025;-78
2024/01/26 00:30:13;;;;;;;12.63;10.63;;;;;;;11.68;100.00;102256.06;5259020;28;21026;-79
2024/01/26 00:32:45;;;;;;;11.63;10.23;;;;;;;11.72;100.00;102256.69;5252036;28;20035;-79
2024/01/26 00:35:17;;;;;;;10.85;9.85;;;;;;;11.64;100.00;102246.69;5256248;28;20037;-79
2024/01/26 00:37:49;;;;;;;10.90;9.80;;;;;;;11.65;100.00;102245.75;5263844;28;20481;-79
2024/01/26 00:40:21;;;;;;;11.85;10.68;;;;;;;11.67;100.00;102248.28;5257473;28;20035;-79
2024/01/26 00:42:53;;;;;;;11.60;10.15;;;;;;;11.61;100.00;102243.44;5258068;28;20033;-79
2024/01/26 00:45:25;;;;;;;11.48;10.38;;;;;;;11.65;100.00;102242.28;5251276;28;20971;-79
2024/01/26 00:47:57;;;;;;;11.25;10.10;;;;;;;11.58;100.00;102235.75;5260375;28;20043;-79
2024/01/26 00:50:29;;;;;;;10.77;9.77;;;;;;;11.63;100.00;102233.66;5257995;28;20035;-78
2024/01/26 00:53:01;;;;;;;10.10;9.13;;;;;;;11.69;100.00;102231.47;5256531;28;21019;-79
2024/01/26 00:55:34;;;;;;;10.15;9.20;;;;;;;11.66;100.00;102234.28;5255322;28;20043;-79
2024/01/26 00:58:05;;;;;;;9.80;8.80;;;;;;;11.66;100.00;102233.47;5258684;28;20033;-79
2024/01/26 01:00:38;;;;;;;10.23;9.18;;;;;;;11.65;100.00;102239.66;5259532;28;20385;-79
2024/01/26 01:03:10;;;;;;;9.30;7.70;;;;;;;11.67;100.00;102235.16;5252605;28;20037;-79
2024/01/26 01:05:42;;;;;;;10.43;8.20;;;;;;;11.63;100.00;102225.78;5257331;28;20421;-79
2024/01/26 01:08:14;;;;;;;10.50;7.55;;;;;;;11.66;100.00;102236.91;5255967;28;20040;-79
2024/01/26 01:10:46;;;;;;;7.97;7.28;;;;;;;11.66;100.00;102236.91;5256109;28;20032;-79
2024/01/26 01:13:18;;;;;;;8.02;7.28;;;;;;;11.65;100.00;102229.16;5257567;28;20165;-79
2024/01/26 01:15:51;;;;;;;8.52;7.65;;;;;;;11.71;100.00;102236.63;5258676;28;20032;-78
2024/01/26 01:18:23;;;;;;;8.63;7.72;;;;;;;11.71;100.00;102230.56;5257314;28;20274;-79
2024/01/26 01:20:55;;;;;;;8.10;7.30;;;;;;;11.72;100.00;102224.34;5259425;28;20039;-79
2024/01/26 01:23:27;;;;;;;8.80;7.85;;;;;;;11.63;100.00;102208.28;5259287;28;20025;-79
2024/01/26 01:25:59;;;;;;;8.00;6.97;;;;;;;11.66;100.00;102207.22;5254217;28;20039;-79
2024/01/26 01:28:30;;;;;;;7.40;6.45;;;;;;;11.65;100.00;102200.28;5255529;28;20029;-79
2024/01/26 01:31:03;;;;;;;7.03;6.32;;;;;;;11.65;100.00;102197.66;5258244;28;20830;-79
2024/01/26 01:33:35;;;;;;;6.90;6.20;;;;;;;11.68;100.00;102211.44;5257273;28;20229;-79
2024/01/26 01:36:07;;;;;;;6.78;6.05;;;;;;;11.71;100.00;102202.50;5254628;28;20399;-79
2024/01/26 01:38:39;;;;;;;6.03;5.43;;;;;;;11.65;100.00;102208.16;5254719;28;20035;-79
2024/01/26 01:41:11;;;;;;;5.97;5.38;;;;;;;11.65;100.00;102206.38;5260834;28;20032;-79
2024/01/26 01:43:43;;;;;;;8.50;5.55;;;;;;;11.65;100.00;102197.66;5258100;28;20028;-79
2024/01/26 01:46:15;;;;;;;5.72;5.10;;;;;;;11.66;100.00;102196.72;5253330;28;20504;-79
2024/01/26 01:48:48;;;;;;;6.20;5.60;;;;;;;11.61;100.00;102175.19;5256351;28;20046;-79
2024/01/26 01:51:21;;;;;;;6.63;5.95;;;;;;;11.64;100.00;102182.88;5260459;28;20036;-79
2024/01/26 01:53:56;;;;;;;5.50;5.00;;;;;;;11.59;100.00;102177.94;5263043;28;20037;-79
2024/01/26 01:56:29;;;;;;;9.05;5.70;;;;;;;11.62;100.00;102180.31;5260611;28;20028;-79
2024/01/26 01:59:01;;;;;;;5.43;4.90;;;;;;;11.59;100.00;102170.06;5257701;28;20204;-79
2024/01/26 02:01:33;;;;;;;6.30;5.18;;;;;;;11.65;100.00;102179.28;5261457;28;20024;-79
2024/01/26 02:04:05;;;;;;;6.13;4.70;;;;;;;11.58;100.00;102164.91;5263029;28;20040;-79
2024/01/26 02:06:37;;;;;;;5.05;4.55;;;;;;;11.57;100.00;102164.06;5264064;28;20389;-79
2024/01/26 02:09:10;;;;;;;5.32;4.82;;;;;;;11.58;100.00;102165.72;5261688;28;20033;-79
2024/01/26 02:11:42;;;;;;;5.00;4.57;;;;;;;11.62;100.00;102155.88;5263643;28;20036;-79
2024/01/26 02:14:14;;;;;;;6.22;4.70;;;;;;;11.58;100.00;102152.59;5263364;28;20060;-79
2024/01/26 02:16:59;;;;;;;5.22;4.60;;;;;;;11.76;100.00;102149.69;5263138;28;20091;-79
2024/01/26 02:19:32;;;;;;;4.95;4.15;;;;;;;11.67;100.00;102151.16;5262654;28;20055;-79
2024/01/26 02:22:05;;;;;;;;;;;;;;;12.18;100.00;102141.44;5258896;28;20037;-79
2024/01/26 02:24:37;;;;;;;5.07;4.57;;;;;;;11.67;100.00;102136.25;5262278;28;20389;-79
2024/01/26 02:27:08;;;;;;;5.25;3.90;;;;;;;11.73;100.00;102142.84;5256100;28;20039;-79
2024/01/26 02:29:40;;;;;;;4.65;3.97;;;;;;;11.72;100.00;102145.59;5259858;28;20029;-79
2024/01/26 02:32:12;;;;;;;3.90;3.60;;;;;;;11.70;100.00;102137.78;5263791;28;20033;-79
2024/01/26 02:34:45;;;;;;;4.65;3.58;;;;;;;11.64;100.00;102136.44;5260887;28;20045;-79
2024/01/26 02:37:16;;;;;;;3.70;3.40;;;;;;;11.68;100.00;102134.47;5261007;28;20040;-79
2024/01/26 02:39:48;;;;;;;4.25;3.70;;;;;;;11.62;100.00;102132.25;5260071;28;20033;-79
2024/01/26 02:42:21;;;;;;;4.65;3.70;;;;;;;11.64;100.00;102122.50;5254196;28;20053;-79
2024/01/26 02:44:52;;;;;;;4.75;3.45;;;;;;;11.62;100.00;102113.88;5254496;28;20032;-79
2024/01/26 02:47:24;;;;;;;4.20;3.45;;;;;;;11.59;100.00;102116.69;5260514;28;20424;-79
2024/01/26 02:49:56;;;;;;;3.58;3.10;;;;;;;11.65;100.00;102118.91;5260377;28;20037;-79
2024/01/26 02:52:28;;;;;;;3.42;3.10;;;;;;;11.65;100.00;102101.38;5261882;28;20045;-79
2024/01/26 02:55:00;;;;;;;3.90;3.50;;;;;;;11.69;100.00;102107.25;5260817;28;20036;-79
2024/01/26 02:57:32;;;;;;;4.05;3.00;;;;;;;11.69;100.00;102094.13;5259174;28;20032;-79
2024/01/26 03:00:05;;;;;;;5.50;3.67;;;;;;;11.66;100.00;102100.41;5261667;28;20055;-79
2024/01/26 03:02:39;;;;;;;4.82;3.20;;;;;;;11.70;100.00;102095.78;5259273;28;20394;-79
2024/01/26 03:05:11;;;;;;;4.35;3.45;;;;;;;11.72;100.00;102088.66;5261556;28;20032;-79
2024/01/26 03:07:42;;;;;;;4.93;3.67;;;;;;;11.73;100.00;102081.63;5258868;28;20037;-79
2024/01/26 03:10:14;;;;;;;5.70;3.65;;;;;;;11.73;100.00;102086.88;5262212;28;20035;-79
2024/01/26 03:12:47;;;;;;;5.03;3.65;;;;;;;11.74;100.00;102086.75;5261904;28;20145;-79
2024/01/26 03:15:19;;;;;;;4.07;3.35;;;;;;;11.79;100.00;102082.03;5261542;28;20033;-79
2024/01/26 03:17:51;;;;;;;3.92;3.13;;;;;;;11.80;100.00;102070.59;5263536;28;20195;-79
2024/01/26 03:20:23;;;;;;;3.35;3.00;;;;;;;11.77;100.00;102057.66;5262469;28;20059;-79
2024/01/26 03:22:55;;;;;;;3.60;3.08;;;;;;;11.79;100.00;102053.16;5254069;28;20060;-79
2024/01/26 03:25:27;;;;;;;5.05;3.63;;;;;;;11.78;100.00;102056.75;5259564;28;20029;-79
2024/01/26 03:27:59;;;;;;;4.03;3.30;;;;;;;11.80;100.00;102048.75;5258572;28;20044;-79
2024/01/26 03:30:32;;;;;;;4.73;3.50;;;;;;;11.81;100.00;102048.63;5258548;28;20032;-79
2024/01/26 03:33:04;;;;;;;4.43;3.70;;;;;;;11.77;100.00;102028.78;5258660;28;20043;-79
2024/01/26 03:35:36;;;;;;;4.83;3.30;;;;;;;11.79;100.00;102041.81;5260345;28;20047;-79
2024/01/26 03:38:08;;;;;;;4.50;3.00;;;;;;;11.79;100.00;102036.56;5260943;28;20315;-80
2024/01/26 03:40:40;;;;;;;5.25;3.60;;;;;;;11.82;100.00;102036.31;5264595;28;20043;-79
2024/01/26 03:43:12;;;;;;;4.55;3.53;;;;;;;11.73;100.00;102027.34;5258632;28;20051;-79
2024/01/26 03:45:44;;;;;;;5.63;3.42;;;;;;;11.84;100.00;102051.06;5259070;28;20075;-79
2024/01/26 03:48:15;;;;;;;3.95;3.60;;;;;;;11.86;100.00;102040.47;5263303;28;20037;-79
2024/01/26 03:50:47;;;;;;;6.07;3.70;;;;;;;11.78;100.00;102022.63;5260092;28;20048;-79
2024/01/26 03:53:19;;;;;;;5.03;3.20;;;;;;;11.90;100.00;102019.13;5255727;28;20047;-79
2024/01/26 03:55:55;;;;;;;5.13;3.78;;;;;;;11.98;100.00;102034.34;5258830;28;20028;-79
2024/01/26 03:58:26;;;;;;;4.45;3.47;;;;;;;11.88;100.00;102021.00;5257575;28;20055;-78
2024/01/26 04:00:58;;;;;;;4.75;3.55;;;;;;;11.91;100.00;102025.22;5256546;28;20032;-79
2024/01/26 04:03:30;;;;;;;4.88;3.92;;;;;;;11.89;100.00;102009.59;5259048;28;20043;-79
2024/01/26 04:06:03;;;;;;;5.22;4.13;;;;;;;11.87;100.00;102008.00;5259843;28;20490;-79
2024/01/26 04:08:35;;;;;;;5.85;4.22;;;;;;;11.89;100.00;102011.34;5261925;28;20037;-79
2024/01/26 04:11:07;;;;;;;5.13;4.60;;;;;;;11.89;100.00;102012.22;5260629;28;20529;-78
2024/01/26 04:13:39;;;;;;;5.75;4.55;;;;;;;11.83;100.00;102001.28;5252780;28;20055;-79
2024/01/26 04:16:11;;;;;;;5.40;4.70;;;;;;;11.87;100.00;101989.63;5258099;28;20049;-79
2024/01/26 04:18:43;;;;;;;8.25;5.35;;;;;;;11.90;100.00;101987.63;5258870;28;20045;-79
2024/01/26 04:21:15;;;;;;;5.38;4.43;;;;;;;11.88;100.00;101980.78;5258084;28;20036;-79
2024/01/26 04:23:47;;;;;;;5.78;5.20;;;;;;;11.83;100.00;101965.38;5257181;28;20028;-81
2024/01/26 04:26:19;;;;;;;7.13;5.22;;;;;;;11.85;100.00;101958.22;5260902;28;20035;-79
2024/01/26 04:28:51;;;;;;;6.20;5.60;;;;;;;11.82;100.00;101949.69;5257884;28;20032;-79
2024/01/26 04:31:24;;;;;;;6.60;5.30;;;;;;;11.82;100.00;101953.19;5260610;28;20029;-78
2024/01/26 04:33:56;;;;;;;7.80;5.18;;;;;;;11.84;100.00;101959.16;5263066;28;20047;-78
2024/01/26 04:36:28;;;;;;;6.70;6.00;;;;;;;11.88;100.00;101957.16;5258419;28;20116;-78
2024/01/26 04:39:01;;;;;;;6.47;5.78;;;;;;;11.89;100.00;101946.56;5260957;28;20047;-79
2024/01/26 04:41:33;;;;;;;;;;;;;;;12.53;100.00;101946.19;5257850;28;20390;-79
2024/01/26 04:44:05;;;;;;;5.60;5.05;;;;;;;11.98;100.00;101938.97;5257310;28;21333;-79
2024/01/26 04:46:36;;;;;;;7.55;6.30;;;;;;;11.85;100.00;101939.84;5259842;28;20047;-78
2024/01/26 04:49:08;;;;;;;6.28;5.68;;;;;;;11.92;100.00;101948.94;5261792;28;20513;-79
2024/01/26 04:51:41;;;;;;;6.95;5.00;;;;;;;11.88;100.00;101947.50;5259170;28;20044;-79
2024/01/26 04:54:12;;;;;;;9.13;5.82;;;;;;;11.81;100.00;101930.47;5262344;28;20052;-79
2024/01/26 04:56:44;;;;;;;6.90;5.40;;;;;;;11.92;100.00;101945.47;5259821;28;20037;-79
2024/01/26 04:59:16;;;;;;;6.28;5.63;;;;;;;11.95;100.00;101939.19;5256172;28;20037;-79
2024/01/26 05:01:48;;;;;;;6.10;5.50;;;;;;;11.93;100.00;101941.91;5251922;28;21008;-78
2024/01/26 05:04:20;;;;;;;6.25;5.45;;;;;;;11.90;100.00;101942.16;5255280;28;20036;-79
2024/01/26 05:06:52;;;;;;;6.85;5.50;;;;;;;11.95;100.00;101936.56;5260221;28;20036;-79
2024/01/26 05:09:24;;;;;;;6.00;5.40;;;;;;;11.91;100.00;101922.81;5259333;28;20478;-79
2024/01/26 05:11:56;;;;;;;5.60;5.07;;;;;;;11.90;100.00;101919.34;5261073;28;20181;-79
2024/01/26 05:14:28;;;;;;;7.07;5.50;;;;;;;11.95;100.00;101923.41;5263011;28;20051;-79
2024/01/26 05:17:00;;;;;;;6.43;5.10;;;;;;;11.88;100.00;101904.66;5258233;28;20232;-79
2024/01/26 05:19:32;;;;;;;6.80;5.32;;;;;;;11.95;100.00;101916.38;5258383;28;20037;-79
2024/01/26 05:22:04;;;;;;;6.38;5.70;;;;;;;11.93;100.00;101908.63;5261189;28;20035;-79
2024/01/26 05:24:35;;;;;;;7.13;5.40;;;;;;;11.93;100.00;101910.38;5254810;28;20032;-79
2024/01/26 05:27:07;;;;;;;7.13;5.40;;;;;;;11.86;100.00;101906.56;5259696;28;20039;-79
2024/01/26 05:29:39;;;;;;;8.55;6.20;;;;;;;11.88;100.00;101899.38;5260797;28;20032;-79
2024/01/26 05:32:11;;;;;;;5.97;5.35;;;;;;;11.95;100.00;101879.59;5257651;28;20041;-79
2024/01/26 05:34:43;;;;;;;6.63;5.40;;;;;;;11.85;100.00;101878.59;5258268;28;20028;-79
2024/01/26 05:37:15;;;;;;;6.22;5.57;;;;;;;11.87;100.00;101874.09;5256854;28;20041;-79
2024/01/26 05:39:47;;;;;;;7.40;5.40;;;;;;;11.87;100.00;101868.84;5254491;28;20043;-80
2024/01/26 05:42:19;;;;;;;6.82;5.38;;;;;;;11.77;100.00;101866.00;5256762;28;20025;-80
2024/01/26 05:44:50;;;;;;;7.82;5.88;;;;;;;11.73;100.00;101872.44;5253034;28;20634;-80
2024/01/26 05:47:22;;;;;;;7.35;5.75;;;;;;;11.78;100.00;101878.22;5256356;28;20364;-79
2024/01/26 05:49:54;;;;;;;6.90;5.05;;;;;;;11.73;100.00;101869.81;5257183;28;20086;-79
2024/01/26 05:52:26;;;;;;;6.20;5.60;;;;;;;11.69;100.00;101871.00;5259965;28;20047;-79
2024/01/26 05:54:58;;;;;;;7.35;5.55;;;;;;;11.65;100.00;101864.28;5255919;28;20040;-79
2024/01/26 05:57:30;;;;;;;6.13;5.40;;;;;;;11.69;100.00;101863.13;5251345;28;20086;-80
2024/01/26 06:00:02;;;;;;;6.15;5.55;;;;;;;11.63;100.00;101860.94;5255967;28;20032;-80
2024/01/26 06:02:34;;;;;;;6.40;5.55;;;;;;;11.67;100.00;101865.03;5253165;28;20024;-79
2024/01/26 06:05:06;;;;;;;6.32;5.72;;;;;;;11.64;100.00;101860.00;5255007;28;20497;-79
2024/01/26 06:07:38;;;;;;;6.72;5.93;;;;;;;11.62;100.00;101851.38;5257982;28;20033;-79
2024/01/26 06:10:10;;;;;;;6.55;5.78;;;;;;;11.65;100.00;101864.28;5258582;28;20025;-79
2024/01/26 06:12:44;;;;;;;7.00;6.30;;;;;;;11.63;100.00;101851.28;5254440;28;20037;-79
2024/01/26 06:15:15;;;;;;;;;;;;;;;12.18;100.00;101849.81;5257405;28;20024;-79
2024/01/26 06:17:48;;;;;;;7.18;6.18;;;;;;;11.68;100.00;101845.69;5255268;28;21117;-79
2024/01/26 06:20:20;;;;;;;6.88;6.15;;;;;;;11.68;100.00;101840.44;5252695;28;20060;-81
2024/01/26 06:22:51;;;;;;;7.53;6.60;;;;;;;11.67;100.00;101829.13;5255972;28;20025;-79
2024/01/26 06:25:24;;;;;;;7.40;6.65;;;;;;;11.73;100.00;101833.06;5255740;28;20041;-78
2024/01/26 06:27:57;;;;;;;9.38;8.13;;;;;;;11.72;100.00;101844.53;5258158;28;20043;-78
2024/01/26 06:30:28;;;;;;;6.97;6.28;;;;;;;11.69;100.00;101842.13;5251033;28;20037;-78
2024/01/26 06:33:00;;;;;;;6.70;6.10;;;;;;;11.67;100.00;101838.78;5247577;28;20064;-78
2024/01/26 06:35:32;;;;;;;6.90;6.20;;;;;;;11.67;100.00;101844.88;5253308;28;20039;-78
2024/01/26 06:38:04;;;;;;;7.07;6.38;;;;;;;11.67;100.00;101849.28;5256548;28;20033;-78
2024/01/26 06:40:37;;;;;;;8.43;6.30;;;;;;;11.71;100.00;101861.22;5259592;28;20461;-79
2024/01/26 06:43:09;;;;;;;9.02;6.78;;;;;;;11.64;100.00;101826.72;5256941;28;20095;-79
2024/01/26 06:45:41;;;;;;;6.82;5.90;;;;;;;11.71;100.00;101850.72;5258195;28;20469;-79
2024/01/26 06:48:13;;;;;;;7.35;5.57;;;;;;;11.70;100.00;101851.66;5258331;28;20148;-79
2024/01/26 06:50:45;;;;;;;6.15;5.55;;;;;;;11.76;100.00;101850.38;5254646;28;20036;-79
2024/01/26 06:53:17;;;;;;;7.97;5.65;;;;;;;11.71;100.00;101834.97;5258235;28;20036;-78
2024/01/26 06:55:49;;;;;;;6.95;6.25;;;;;;;11.73;100.00;101832.22;5256953;28;20037;-78
2024/01/26 06:58:21;;;;;;;7.22;5.75;;;;;;;11.78;100.00;101835.34;5256473;28;20036;-78
2024/01/26 07:00:53;;;;;;;7.22;6.32;;;;;;;11.80;100.00;101830.81;5252138;28;20051;-79
2024/01/26 07:03:25;;;;;;;7.15;6.43;;;;;;;11.80;100.00;101823.78;5252908;28;20029;-79
2024/01/26 07:05:57;;;;;;;9.25;6.45;;;;;;;11.83;100.00;101828.84;5245146;28;20036;-79
2024/01/26 07:08:29;;;;;;;6.90;6.20;;;;;;;11.82;100.00;101828.91;5254055;28;20044;-79
2024/01/26 07:11:01;;;;;;;7.65;6.50;;;;;;;11.82;100.00;101827.16;5256066;28;20112;-79
2024/01/26 07:13:33;;;;;;;6.93;6.32;;;;;;;11.86;100.00;101814.66;5254995;28;20059;-79
2024/01/26 07:16:05;;;;;;;7.15;6.30;;;;;;;11.83;100.00;101805.22;5261230;28;20032;-79
2024/01/26 07:18:37;;;;;;;7.40;6.70;;;;;;;11.84;100.00;101817.38;5252322;28;20037;-79
2024/01/26 07:21:10;;;;;;;6.63;6.03;;;;;;;11.91;100.00;101815.97;5260650;28;21019;-79
2024/01/26 07:23:42;;;;;;;6.72;5.97;;;;;;;11.91;100.00;101813.34;5258429;28;20028;-79
2024/01/26 07:26:21;;;;;;;7.18;6.35;;;;;;;12.00;100.00;101821.47;5258435;28;20390;-79
2024/01/26 07:28:52;;;;;;;6.60;5.95;;;;;;;11.95;100.00;101808.72;5253511;28;20222;-79
2024/01/26 07:31:25;;;;;;;6.43;5.82;;;;;;;12.01;100.00;101804.75;5254279;28;20032;-79
2024/01/26 07:33:58;;;;;;;6.18;5.57;;;;;;;11.94;100.00;101801.78;5258077;28;20051;-79
2024/01/26 07:36:31;;;;;;;7.03;6.43;;;;;;;12.03;100.00;101806.34;5260129;28;20039;-79
2024/01/26 07:39:05;;;;;;;7.05;6.05;;;;;;;12.03;100.00;101803.72;5253506;28;20025;-79
2024/01/26 07:41:37;;;;;;;7.22;6.22;;;;;;;12.08;100.00;101798.09;5259412;28;20033;-79
2024/01/26 07:44:09;;;;;;;6.88;6.05;;;;;;;12.08;100.00;101806.81;5257174;28;20079;-79
2024/01/26 07:46:41;;;;;;;7.50;6.07;;;;;;;12.06;100.00;101805.28;5256275;28;20478;-79
2024/01/26 07:49:13;;;;;;;6.85;6.18;;;;;;;12.15;100.00;101817.69;5260509;28;20024;-79
2024/01/26 07:51:44;;;;;;;7.10;6.40;;;;;;;12.16;100.00;101829.91;5258491;28;20417;-79
2024/01/26 07:54:16;;;;;;;6.75;6.13;;;;;;;12.15;100.00;101833.47;5255657;28;20040;-79
2024/01/26 07:56:49;;;;;;;7.43;6.15;;;;;;;12.24;100.00;101839.81;5249815;28;20032;-79
2024/01/26 07:59:21;;;;;;;9.40;5.90;;;;;;;12.26;100.00;101849.25;5257585;28;20032;-79
2024/01/26 08:01:53;;;;;;;6.70;5.85;;;;;;;12.26;100.00;101857.13;5253240;28;20033;-79
2024/01/26 08:04:26;;;;;;;6.20;5.60;;;;;;;12.33;100.00;101862.75;5252478;28;20040;-79
2024/01/26 08:06:58;;;;;;;5.85;5.30;;;;;;;12.34;100.00;101862.63;5260976;28;20509;-79
2024/01/26 08:09:30;;;;;;;6.07;5.32;;;;;;;12.35;100.00;101856.44;5257104;28;20147;-79
2024/01/26 08:12:02;;;;;;;5.97;5.38;;;;;;;12.39;100.00;101862.31;5257025;28;20036;-79
2024/01/26 08:14:35;;;;;;;6.30;4.60;;;;;;;12.38;100.00;101864.06;5255046;28;20049;-79
2024/01/26 08:17:07;;;;;;;5.43;4.75;;;;;;;12.47;100.00;101866.97;5258277;28;20055;-79
2024/01/26 08:19:39;;;;;;;5.10;4.55;;;;;;;12.45;100.00;101866.25;5259260;28;20508;-80
2024/01/26 08:22:13;;;;;;;5.78;4.95;;;;;;;12.52;100.00;101873.53;5257248;28;20028;-79
2024/01/26 08:24:45;;;;;;;6.93;5.00;;;;;;;12.52;100.00;101872.72;5256087;28;20540;-79
2024/01/26 08:27:18;;;;;;;7.45;4.43;;;;;;;12.44;100.00;101867.22;5260455;28;20047;-79
2024/01/26 08:29:50;;;;;;;7.55;4.80;;;;;;;12.44;100.00;101849.63;5255500;28;20041;-80
2024/01/26 08:32:24;;;;;;;4.80;3.83;;;;;;;12.47;100.00;101857.28;5257425;28;20485;-80
2024/01/26 08:34:56;;;;;;;6.07;4.38;;;;;;;12.52;100.00;101876.16;5256747;28;20036;-79
2024/01/26 08:37:28;;;;;;;4.38;3.97;;;;;;;12.53;100.00;101882.25;5257072;28;20033;-79
2024/01/26 08:40:00;;;;;;;4.55;3.95;;;;;;;12.52;100.00;101878.81;5256413;28;20043;-80
2024/01/26 08:42:33;;;;;;;5.05;4.25;;;;;;;12.57;100.00;101886.31;5256617;28;20025;-80
2024/01/26 08:45:05;;;;;;;;;;;;;;;13.07;100.00;101881.59;5257568;28;20036;-81
2024/01/26 08:47:37;;;;;;;4.82;4.32;;;;;;;12.64;100.00;101874.38;5255473;28;20384;-80
2024/01/26 08:50:09;;;;;;;5.82;4.38;;;;;;;12.62;100.00;101874.53;5255041;28;20498;-80
2024/01/26 08:52:41;;;;;;;5.53;4.85;;;;;;;12.63;100.00;101877.97;5259248;28;20059;-80
2024/01/26 08:55:14;;;;;;;6.45;5.07;;;;;;;12.62;100.00;101873.69;5254101;28;20490;-79
2024/01/26 08:57:48;;;;;;;5.03;4.38;;;;;;;12.63;100.00;101868.31;5255509;28;20103;-80
2024/01/26 09:00:20;;;;;;;5.63;5.05;;;;;;;12.64;100.00;101875.22;5255426;28;20031;-79
2024/01/26 09:02:52;;;;;;;7.05;5.78;;;;;;;12.66;100.00;101873.31;5251439;28;20382;-79
2024/01/26 09:05:25;;;;;;;7.05;5.43;;;;;;;12.63;100.00;101870.09;5251261;28;20043;-79
2024/01/26 09:07:58;;;;;;;5.70;5.13;;;;;;;12.70;100.00;101880.97;5258273;28;20051;-79
2024/01/26 09:10:31;;;;;;;6.57;5.57;;;;;;;12.71;100.00;101882.66;5253288;28;20033;-79
2024/01/26 09:13:03;;;;;;;6.32;5.65;;;;;;;12.70;100.00;101879.19;5254429;28;20333;-79
2024/01/26 09:15:35;;;;;;;7.28;6.20;;;;;;;12.71;100.00;101915.03;5256758;28;20651;-79
2024/01/26 09:18:06;;;;;;;6.18;5.32;;;;;;;12.61;100.00;101930.69;5253782;28;20025;-80
2024/01/26 09:20:39;;;;;;;4.97;4.30;;;;;;;12.59;100.00;101943.09;5254752;28;20039;-79
2024/01/26 09:23:11;;;;;;;5.90;4.15;;;;;;;12.55;100.00;101935.56;5258110;28;20021;-79
2024/01/26 09:25:45;;;;;;;5.35;2.97;;;;;;;12.50;100.00;101942.94;5255399;28;20043;-79
2024/01/26 09:28:17;;;;;;;4.63;2.22;;;;;;;12.42;100.00;101946.16;5254718;28;20032;-79
2024/01/26 09:30:49;;;;;;;6.88;2.38;;;;;;;12.48;100.00;101956.22;5257119;28;20032;-79
2024/01/26 09:33:23;;;;;;;4.57;1.77;;;;;;;12.50;100.00;101961.34;5252798;28;20038;-79
2024/01/26 09:35:56;;;;;;;7.05;2.03;;;;;;;12.40;100.00;101958.59;5254946;28;20347;-79
2024/01/26 09:38:28;;;;;;;4.35;1.88;;;;;;;12.47;100.00;101962.44;5255310;28;20037;-79
2024/01/26 09:41:00;;;;;;;4.75;1.58;;;;;;;12.38;100.00;101974.44;5253700;28;20044;-80
2024/01/26 09:43:32;;;;;;;9.25;2.10;;;;;;;12.35;100.00;101981.72;5253868;28;20025;-80
2024/01/26 09:46:07;;;;;;;8.63;2.13;;;;;;;12.34;100.00;101985.31;5255916;28;20025;-80
2024/01/26 09:48:43;;;;;;;7.78;2.13;;;;;;;12.28;100.00;102015.53;5252901;28;20471;-80
2024/01/26 09:51:15;;;;;;;6.60;2.05;;;;;;;12.18;100.00;102043.41;5251809;28;20056;-80
2024/01/26 09:53:50;;;;;;;7.50;1.60;;;;;;;12.15;100.00;102080.41;5252187;28;20485;-80
2024/01/26 09:56:29;;;;;;;8.70;1.73;;;;;;;12.00;100.00;102078.88;5253081;28;20045;-80
2024/01/26 09:59:01;;;;;;;8.07;1.90;;;;;;;11.87;100.00;102094.66;5247607;28;20029;-79
2024/01/26 10:01:34;;;;;;;6.43;1.90;;;;;;;11.76;100.00;102118.19;5255325;28;20037;-80
2024/01/26 10:04:07;;;;;;;9.40;2.13;;;;;;;11.82;100.00;102118.59;5253740;28;21439;-79
2024/01/26 10:06:39;;;;;;;8.20;1.92;;;;;;;11.69;100.00;102134.34;5254254;28;20027;-80
2024/01/26 10:09:13;;;;;;;6.35;2.45;;;;;;;11.56;100.00;102125.63;5252056;28;20044;-79
2024/01/26 10:11:45;;;;;;;7.53;1.88;;;;;;;11.55;100.00;102144.94;5254810;28;20652;-80
2024/01/26 10:14:21;;;;;;;8.40;2.17;;;;;;;11.63;100.00;102131.28;5254349;28;20112;-79
2024/01/26 10:16:57;;;;;;;8.38;2.17;;;;;;;11.57;100.00;102143.06;5257221;28;20036;-79
2024/01/26 10:19:30;;;;;;;11.30;2.97;;;;;;;11.41;100.00;102138.03;5256241;28;20044;-79
2024/01/26 10:22:02;;;;;;;9.75;2.90;;;;;;;11.42;100.00;102144.94;5252171;28;20029;-79
2024/01/26 10:24:34;;;;;;;7.45;2.28;;;;;;;11.36;100.00;102161.09;5258149;28;20032;-79
2024/01/26 10:27:06;;;;;;;8.07;2.15;;;;;;;11.51;100.00;102171.50;5256987;28;20493;-80
2024/01/26 10:29:39;;;;;;;9.23;2.53;;;;;;;11.47;100.00;102164.78;5257427;28;20033;-80
2024/01/26 10:32:13;;;;;;;7.60;2.63;;;;;;;11.49;100.00;102176.03;5258302;28;20029;-80
2024/01/26 10:34:47;;;;;;;14.00;2.70;;;;;;;11.43;100.00;102185.13;5258455;28;20032;-80
2024/01/26 10:37:21;;;;;;;10.23;2.83;;;;;;;11.38;100.00;102179.38;5254721;28;20772;-80
2024/01/26 10:39:55;;;;;;;10.00;2.42;;;;;;;11.50;100.00;102196.06;5257214;28;20470;-80
2024/01/26 10:42:31;;;;;;;13.88;3.28;;;;;;;11.50;100.00;102199.53;5251715;28;20472;-80
2024/01/26 10:45:06;;;;;;;9.90;2.35;;;;;;;11.54;100.00;102187.03;5255204;28;20475;-80
2024/01/26 10:47:39;;;;;;;10.57;2.50;;;;;;;11.63;100.00;102218.78;5254231;28;20029;-80
2024/01/26 10:50:12;;;;;;;7.80;2.45;;;;;;;11.69;100.00;102212.25;5249475;28;20481;-80
2024/01/26 10:52:48;;;;;;;12.98;2.47;;;;;;;11.83;100.00;102230.59;5258491;28;20037;-80
2024/01/26 10:55:20;;;;;;;16.13;3.15;;;;;;;11.71;100.00;102239.25;5256430;28;20485;-80
2024/01/26 10:57:52;;;;;;;7.03;2.10;;;;;;;11.65;100.00;102232.63;5257957;28;20035;-80
2024/01/26 11:00:24;;;;;;;9.60;2.97;;;;;;;11.72;100.00;102250.59;5258579;28;20219;-79
2024/01/26 11:02:57;;;;;;;8.88;2.22;;;;;;;11.50;100.00;102272.19;5256818;28;20848;-80
2024/01/26 11:05:29;;;;;;;6.22;1.63;;;;;;;11.44;100.00;102279.53;5258393;28;20048;-80
2024/01/26 11:08:11;;;;;;;7.40;2.08;;;;;;;11.49;100.00;102291.50;5262398;28;20028;-80
2024/01/26 11:10:47;;;;;;;8.85;1.50;;;;;;;11.32;100.00;102295.22;5259535;28;20040;-80
2024/01/26 11:13:22;;;;;;;8.57;2.05;;;;;;;11.40;100.00;102309.53;5256247;28;20079;-79
2024/01/26 11:16:07;;;;;;;8.75;1.92;;;;;;;11.52;100.00;102307.91;5257687;28;20505;-79
2024/01/26 11:18:40;;;;;;;5.90;1.52;;;;;;;11.36;100.00;102315.06;5258938;28;20044;-79
2024/01/26 11:21:19;;;;;;;11.45;2.25;;;;;;;11.58;100.00;102325.00;5258684;28;20032;-79
2024/01/26 11:23:51;;;;;;;6.40;1.48;;;;;;;11.49;100.00;102336.97;5257614;28;20029;-79
2024/01/26 11:26:23;;;;;;;5.20;1.52;;;;;;;11.63;100.00;102363.16;5254612;28;20032;-79
2024/01/26 11:28:55;;;;;;;5.18;1.75;;;;;;;11.62;100.00;102364.06;5255544;28;20040;-79
2024/01/26 11:31:30;;;;;;;6.43;1.80;;;;;;;11.69;100.00;102369.78;5253542;28;20191;-79
2024/01/26 11:34:02;;;;;;;5.07;1.27;;;;;;;11.41;100.00;102374.19;5256109;28;20501;-79
2024/01/26 11:36:33;;;;;;;6.63;1.40;;;;;;;11.24;100.00;102391.94;5256038;28;20032;-79
2024/01/26 11:39:09;;;;;;;5.80;1.48;;;;;;;11.05;100.00;102381.75;5255983;28;20032;-80
2024/01/26 11:41:47;;;;;;;6.03;1.67;;;;;;;11.07;100.00;102387.75;5260813;28;20055;-80